createdAt,value
2023-04-08T00:01:00.068Z,98352.34
2023-04-08T00:03:29.054Z,98347.34
2023-04-08T00:05:57.439Z,98355.88
2023-04-08T00:08:25.984Z,98357.69
2023-04-08T00:10:54.188Z,98364.25
2023-04-08T00:13:24.131Z,98355.28
2023-04-08T00:15:52.287Z,98357.19
2023-04-08T00:18:20.952Z,98356.72
2023-04-08T00:20:49.118Z,98365.28
2023-04-08T00:23:18.266Z,98367.03
2023-04-08T00:25:46.681Z,98363.94
2023-04-08T00:28:15.617Z,98363.97
2023-04-08T00:30:45.173Z,98378.44
2023-04-08T00:33:13.749Z,98378.50
2023-04-08T00:35:42.103Z,98379.97
2023-04-08T00:38:10.985Z,98375.16
2023-04-08T00:40:39.121Z,98374.53
2023-04-08T00:43:07.709Z,98375.50
2023-04-08T00:45:35.983Z,98367.41
2023-04-08T00:48:06.785Z,98373.72
2023-04-08T00:50:35.087Z,98381.63
2023-04-08T00:53:03.597Z,98377.38
2023-04-08T00:55:31.976Z,98369.44
2023-04-08T00:58:00.488Z,98377.03
2023-04-08T01:00:29.681Z,98377.94
2023-04-08T01:03:07.363Z,98383.66
2023-04-08T01:05:41.663Z,98385.41
2023-04-08T01:08:11.896Z,98393.72
2023-04-08T01:10:43.017Z,98388.91
2023-04-08T01:13:13.715Z,98391.47
2023-04-08T01:15:44.139Z,98389.34
2023-04-08T01:18:15.735Z,98398.91
2023-04-08T01:20:44.473Z,98385.34
2023-04-08T01:23:17.703Z,98386.25
2023-04-08T01:25:49.245Z,98390.38
2023-04-08T01:28:19.291Z,98390.56
2023-04-08T01:30:48.067Z,98398.38
2023-04-08T01:33:18.888Z,98391.59
2023-04-08T01:35:47.637Z,98398.31
2023-04-08T01:38:18.520Z,98393.31
2023-04-08T01:40:49.720Z,98396.44
2023-04-08T01:43:19.328Z,98400.28
2023-04-08T01:45:48.770Z,98403.06
2023-04-08T01:48:17.470Z,98402.28
2023-04-08T01:50:46.547Z,98407.88
2023-04-08T01:53:15.637Z,98407.00
2023-04-08T01:55:44.383Z,98398.13
2023-04-08T01:58:19.679Z,98404.00
2023-04-08T02:00:48.146Z,98409.94
2023-04-08T02:03:19.276Z,98411.69
2023-04-08T02:05:47.687Z,98412.44
2023-04-08T02:08:16.546Z,98407.34
2023-04-08T02:10:44.674Z,98405.56
2023-04-08T02:13:14.578Z,98411.81
2023-04-08T02:15:48.585Z,98413.25
2023-04-08T02:18:18.599Z,98427.25
2023-04-08T02:20:55.667Z,98412.00
2023-04-08T02:23:26.400Z,98416.22
2023-04-08T02:25:55.855Z,98419.38
2023-04-08T02:28:27.621Z,98422.63
2023-04-08T02:30:56.173Z,98424.06
2023-04-08T02:33:24.788Z,98410.81
2023-04-08T02:35:56.210Z,98417.53
2023-04-08T02:38:27.660Z,98423.38
2023-04-08T02:40:55.920Z,98421.81
2023-04-08T02:43:29.918Z,98424.25
2023-04-08T02:45:58.392Z,98433.50
2023-04-08T02:48:26.867Z,98427.47
2023-04-08T02:50:55.168Z,98434.28
2023-04-08T02:53:23.859Z,98436.13
2023-04-08T02:55:52.315Z,98441.47
2023-04-08T02:58:22.198Z,98444.81
2023-04-08T03:00:51.877Z,98438.28
2023-04-08T03:03:20.381Z,98448.19
2023-04-08T03:05:48.628Z,98445.78
2023-04-08T03:08:17.263Z,98452.94
2023-04-08T03:10:45.751Z,98457.88
2023-04-08T03:13:14.258Z,98454.09
2023-04-08T03:15:42.571Z,98444.03
2023-04-08T03:18:12.708Z,98451.66
2023-04-08T03:20:40.828Z,98446.13
2023-04-08T03:23:09.370Z,98453.88
2023-04-08T03:25:37.530Z,98448.19
2023-04-08T03:28:06.267Z,98448.50
2023-04-08T03:30:34.861Z,98462.63
2023-04-08T03:33:07.373Z,98462.44
2023-04-08T03:35:37.784Z,98472.34
2023-04-08T03:38:06.337Z,98464.34
2023-04-08T03:40:34.744Z,98464.34
2023-04-08T03:43:03.383Z,98474.22
2023-04-08T03:45:31.705Z,98470.63
2023-04-08T03:48:00.293Z,98471.00
2023-04-08T03:50:28.522Z,98474.72
2023-04-08T03:52:58.371Z,98468.75
2023-04-08T03:55:26.666Z,98481.44
2023-04-08T03:57:55.194Z,98475.69
2023-04-08T04:00:23.420Z,98487.34
2023-04-08T04:02:52.107Z,98495.72
2023-04-08T04:05:20.642Z,98482.69
2023-04-08T04:07:49.275Z,98489.69
2023-04-08T04:10:18.995Z,98484.81
2023-04-08T04:12:47.849Z,98492.00
2023-04-08T04:15:16.219Z,98488.31
2023-04-08T04:17:44.731Z,98498.09
2023-04-08T04:20:13.762Z,98495.41
2023-04-08T04:22:42.385Z,98504.94
2023-04-08T04:25:11.261Z,98504.84
2023-04-08T04:27:41.094Z,98510.50
2023-04-08T04:30:10.653Z,98510.72
2023-04-08T04:32:39.306Z,98503.41
2023-04-08T04:35:07.943Z,98505.63
2023-04-08T04:37:36.582Z,98513.03
2023-04-08T04:40:05.195Z,98512.16
2023-04-08T04:42:34.041Z,98519.78
2023-04-08T04:45:04.349Z,98519.34
2023-04-08T04:47:33.172Z,98512.69
2023-04-08T04:50:01.486Z,98520.03
2023-04-08T04:52:30.002Z,98531.56
2023-04-08T04:54:58.951Z,98524.91
2023-04-08T04:57:27.502Z,98523.66
2023-04-08T04:59:55.728Z,98525.81
2023-04-08T05:02:25.676Z,98523.66
2023-04-08T05:04:55.824Z,98529.41
2023-04-08T05:07:24.591Z,98538.00
2023-04-08T05:09:52.776Z,98541.34
2023-04-08T05:12:22.027Z,98539.97
2023-04-08T05:14:50.397Z,98549.47
2023-04-08T05:17:18.923Z,98545.91
2023-04-08T05:19:48.552Z,98544.06
2023-04-08T05:22:17.196Z,98545.97
2023-04-08T05:24:45.498Z,98557.44
2023-04-08T05:27:14.106Z,98554.19
2023-04-08T05:29:42.577Z,98554.44
2023-04-08T05:32:11.315Z,98559.31
2023-04-08T05:34:39.556Z,98554.28
2023-04-08T05:37:09.603Z,98558.47
2023-04-08T05:39:37.834Z,98561.69
2023-04-08T05:42:06.370Z,98563.03
2023-04-08T05:44:34.686Z,98570.22
2023-04-08T05:47:03.415Z,98573.38
2023-04-08T05:49:31.573Z,98578.75
2023-04-08T05:52:00.066Z,98580.94
2023-04-08T05:54:29.775Z,98571.09
2023-04-08T05:56:58.305Z,98582.97
2023-04-08T05:59:26.502Z,98586.59
2023-04-08T06:01:57.196Z,98586.84
2023-04-08T06:04:25.855Z,98588.19
2023-04-08T06:06:54.489Z,98589.84
2023-04-08T06:09:22.721Z,98586.66
2023-04-08T06:11:52.647Z,98592.47
2023-04-08T06:14:21.610Z,98588.63
2023-04-08T06:16:50.084Z,98593.88
2023-04-08T06:19:18.442Z,98589.94
2023-04-08T06:21:47.472Z,98599.56
2023-04-08T06:24:15.689Z,98598.66
2023-04-08T06:26:44.411Z,98606.59
2023-04-08T06:29:14.143Z,98604.41
2023-04-08T06:31:42.938Z,98604.34
2023-04-08T06:34:11.388Z,98621.53
2023-04-08T06:36:40.008Z,98618.03
2023-04-08T06:39:08.486Z,98621.09
2023-04-08T06:41:36.906Z,98621.03
2023-04-08T06:44:05.382Z,98618.19
2023-04-08T06:46:35.424Z,98624.19
2023-04-08T06:49:04.676Z,98638.78
2023-04-08T06:54:01.525Z,98634.13
2023-04-08T06:56:30.170Z,98629.88
2023-04-08T06:58:58.483Z,98620.28
2023-04-08T07:01:26.994Z,98620.91
2023-04-08T07:03:56.942Z,98619.66
2023-04-08T07:06:25.614Z,98630.44
2023-04-08T07:08:56.360Z,98636.22
2023-04-08T07:11:25.045Z,98635.97
2023-04-08T07:13:53.275Z,98644.41
2023-04-08T07:16:21.822Z,98646.44
2023-04-08T07:18:50.313Z,98646.22
2023-04-08T07:21:20.523Z,98641.22
2023-04-08T07:23:48.994Z,98644.81
2023-04-08T07:26:17.681Z,98632.38
2023-04-08T07:28:45.988Z,98648.78
2023-04-08T07:31:18.199Z,98658.16
2023-04-08T07:33:46.958Z,98642.56
2023-04-08T07:36:18.433Z,98661.16
2023-04-08T07:38:48.511Z,98662.44
2023-04-08T07:41:17.416Z,98656.22
2023-04-08T07:43:46.173Z,98660.47
2023-04-08T07:46:15.064Z,98663.75
2023-04-08T07:48:43.277Z,98662.56
2023-04-08T07:51:11.944Z,98656.44
2023-04-08T07:53:40.832Z,98662.97
2023-04-08T07:56:14.955Z,98651.97
2023-04-08T07:58:43.647Z,98656.75
2023-04-08T08:01:20.169Z,98653.59
2023-04-08T08:03:49.041Z,98647.47
2023-04-08T08:06:17.935Z,98648.53
2023-04-08T08:08:46.369Z,98639.22
2023-04-08T08:11:16.354Z,98643.53
2023-04-08T08:13:44.552Z,98656.75
2023-04-08T08:16:13.189Z,98647.94
2023-04-08T08:18:42.106Z,98651.97
2023-04-08T08:21:10.918Z,98657.78
2023-04-08T08:23:39.384Z,98648.31
2023-04-08T08:26:10.190Z,98669.41
2023-04-08T08:28:40.405Z,98650.94
2023-04-08T08:31:09.037Z,98661.66
2023-04-08T08:33:37.395Z,98650.78
2023-04-08T08:36:07.158Z,98647.34
2023-04-08T08:38:35.524Z,98659.81
2023-04-08T08:41:04.855Z,98648.38
2023-04-08T08:43:34.736Z,98650.47
2023-04-08T08:46:04.700Z,98653.97
2023-04-08T08:48:34.230Z,98658.13
2023-04-08T08:51:02.844Z,98663.75
2023-04-08T08:53:35.067Z,98656.28
2023-04-08T08:56:17.994Z,98665.59
2023-04-08T08:58:47.867Z,98674.97
2023-04-08T09:01:38.261Z,98674.88
2023-04-08T09:04:12.311Z,98681.00
2023-04-08T09:06:41.466Z,98683.03
2023-04-08T09:09:12.986Z,98687.34
2023-04-08T09:11:43.128Z,98677.47
2023-04-08T09:14:21.630Z,98679.28
2023-04-08T09:16:52.157Z,98677.41
2023-04-08T09:19:20.835Z,98679.44
2023-04-08T09:22:06.604Z,98694.09
2023-04-08T09:24:35.320Z,98694.59
2023-04-08T09:27:04.353Z,98686.31
2023-04-08T09:29:35.256Z,98687.72
2023-04-08T09:32:07.842Z,98689.84
2023-04-08T09:34:36.838Z,98682.56
2023-04-08T09:37:05.403Z,98691.72
2023-04-08T09:39:33.782Z,98694.81
2023-04-08T09:42:03.586Z,98689.41
2023-04-08T09:44:32.921Z,98683.03
2023-04-08T09:47:06.440Z,98689.53
2023-04-08T09:49:39.918Z,98697.09
2023-04-08T09:52:09.724Z,98686.19
2023-04-08T09:54:44.020Z,98683.03
2023-04-08T09:57:19.065Z,98693.03
2023-04-08T09:59:51.351Z,98690.72
2023-04-08T10:02:26.140Z,98698.13
2023-04-08T10:04:56.507Z,98685.06
2023-04-08T10:07:25.124Z,98698.50
2023-04-08T10:09:53.655Z,98702.34
2023-04-08T10:12:22.366Z,98698.78
2023-04-08T10:15:24.559Z,98698.56
2023-04-08T10:17:53.501Z,98700.03
2023-04-08T10:20:46.003Z,98696.19
2023-04-08T10:23:15.475Z,98705.47
2023-04-08T10:25:45.201Z,98699.94
2023-04-08T10:28:27.379Z,98696.44
2023-04-08T10:30:57.490Z,98701.53
2023-04-08T10:33:34.764Z,98695.44
2023-04-08T10:36:12.224Z,98694.75
2023-04-08T10:38:42.448Z,98703.50
2023-04-08T10:41:12.008Z,98715.88
2023-04-08T10:43:40.753Z,98700.50
2023-04-08T10:46:11.713Z,98708.34
2023-04-08T10:48:40.516Z,98714.94
2023-04-08T10:51:10.188Z,98714.19
2023-04-08T10:53:40.433Z,98711.84
2023-04-08T10:56:11.057Z,98710.78
2023-04-08T10:58:49.191Z,98705.72
2023-04-08T11:01:17.732Z,98708.84
2023-04-08T11:03:46.401Z,98716.94
2023-04-08T11:06:16.513Z,98708.75
2023-04-08T11:08:45.454Z,98715.72
2023-04-08T11:11:13.624Z,98722.06
2023-04-08T11:13:52.054Z,98705.28
2023-04-08T11:16:21.367Z,98721.69
2023-04-08T11:18:50.405Z,98707.34
2023-04-08T11:21:20.350Z,98710.72
2023-04-08T11:23:51.975Z,98708.91
2023-04-08T11:26:21.241Z,98717.34
2023-04-08T11:28:52.048Z,98701.31
2023-04-08T11:31:22.738Z,98707.03
2023-04-08T11:33:54.979Z,98704.41
2023-04-08T11:36:24.518Z,98705.16
2023-04-08T11:38:55.469Z,98726.09
2023-04-08T11:41:23.928Z,98729.63
2023-04-08T11:43:56.519Z,98717.44
2023-04-08T11:46:25.585Z,98718.84
2023-04-08T11:49:04.840Z,98719.53
2023-04-08T11:51:35.617Z,98712.19
2023-04-08T11:54:06.660Z,98709.53
2023-04-08T11:56:46.988Z,98717.31
2023-04-08T11:59:15.653Z,98728.31
2023-04-08T12:01:43.871Z,98726.69
2023-04-08T12:04:12.661Z,98724.44
2023-04-08T12:06:43.714Z,98719.81
2023-04-08T12:09:12.899Z,98734.56
2023-04-08T12:11:41.331Z,98733.59
2023-04-08T12:14:09.862Z,98723.94
2023-04-08T12:16:38.150Z,98722.81
2023-04-08T12:19:07.252Z,98721.94
2023-04-08T12:21:35.420Z,98722.06
2023-04-08T12:24:05.428Z,98717.53
2023-04-08T12:26:34.813Z,98713.88
2023-04-08T12:29:03.300Z,98732.63
2023-04-08T12:31:32.098Z,98721.41
2023-04-08T12:34:00.654Z,98716.19
2023-04-08T12:36:28.968Z,98719.53
2023-04-08T12:38:57.691Z,98733.66
2023-04-08T12:41:27.336Z,98725.97
2023-04-08T12:43:55.959Z,98724.81
2023-04-08T12:46:24.147Z,98716.94
2023-04-08T12:49:03.465Z,98720.31
2023-04-08T12:51:32.673Z,98728.59
2023-04-08T12:54:02.095Z,98722.22
2023-04-08T12:56:31.700Z,98736.97
2023-04-08T12:59:01.192Z,98732.78
2023-04-08T13:01:31.148Z,98723.78
2023-04-08T13:04:00.241Z,98733.47
2023-04-08T13:06:28.804Z,98741.25
2023-04-08T13:08:57.453Z,98748.56
2023-04-08T13:11:25.986Z,98732.16
2023-04-08T13:13:56.038Z,98744.81
2023-04-08T13:16:24.747Z,98732.78
2023-04-08T13:18:53.644Z,98731.91
2023-04-08T13:21:21.942Z,98735.81
2023-04-08T13:23:50.345Z,98731.00
2023-04-08T13:26:18.591Z,98740.25
2023-04-08T13:28:56.612Z,98739.84
2023-04-08T13:31:27.735Z,98746.63
2023-04-08T13:33:58.188Z,98755.19
2023-04-08T13:36:28.880Z,98734.50
2023-04-08T13:38:57.849Z,98738.06
2023-04-08T13:41:28.295Z,98737.13
2023-04-08T13:43:57.584Z,98733.69
2023-04-08T13:46:28.668Z,98740.00
2023-04-08T13:48:57.656Z,98734.09
2023-04-08T13:51:27.895Z,98744.25
2023-04-08T13:53:57.223Z,98731.00
2023-04-08T13:56:25.637Z,98738.13
2023-04-08T13:58:57.357Z,98739.28
2023-04-08T14:01:27.514Z,98733.09
2023-04-08T14:03:56.486Z,98733.09
2023-04-08T14:06:24.766Z,98751.53
2023-04-08T14:08:53.421Z,98745.88
2023-04-08T14:11:22.467Z,98741.72
2023-04-08T14:13:50.951Z,98753.44
2023-04-08T14:16:19.827Z,98741.31
2023-04-08T14:18:50.045Z,98751.72
2023-04-08T14:21:18.877Z,98738.69
2023-04-08T14:23:48.264Z,98739.16
2023-04-08T14:26:16.720Z,98734.03
2023-04-08T14:28:45.216Z,98740.44
2023-04-08T14:31:13.781Z,98742.84
2023-04-08T14:33:42.420Z,98738.63
2023-04-08T14:36:14.222Z,98730.47
2023-04-08T14:38:42.810Z,98728.91
2023-04-08T14:41:11.063Z,98726.91
2023-04-08T14:43:39.592Z,98729.75
2023-04-08T14:46:08.013Z,98736.69
2023-04-08T14:48:36.639Z,98733.72
2023-04-08T14:51:05.208Z,98730.69
2023-04-08T14:53:35.576Z,98734.84
2023-04-08T14:56:04.241Z,98730.84
2023-04-08T14:58:33.148Z,98728.53
2023-04-08T15:01:01.558Z,98731.38
2023-04-08T15:03:30.562Z,98743.78
2023-04-08T15:05:59.779Z,98734.75
2023-04-08T15:08:28.445Z,98731.34
2023-04-08T15:10:59.669Z,98737.41
2023-04-08T15:13:28.294Z,98739.31
2023-04-08T15:15:56.829Z,98737.06
2023-04-08T15:18:25.568Z,98739.63
2023-04-08T15:20:53.843Z,98741.22
2023-04-08T15:23:23.382Z,98737.28
2023-04-08T15:25:51.986Z,98742.13
2023-04-08T15:28:21.975Z,98743.69
2023-04-08T15:30:50.574Z,98747.31
2023-04-08T15:33:19.359Z,98745.69
2023-04-08T15:35:48.650Z,98749.38
2023-04-08T15:38:17.619Z,98744.66
2023-04-08T15:40:47.970Z,98755.59
2023-04-08T15:43:16.876Z,98733.72
2023-04-08T15:45:46.817Z,98736.94
2023-04-08T15:48:15.512Z,98747.47
2023-04-08T15:50:43.766Z,98732.69
2023-04-08T15:53:12.339Z,98747.34
2023-04-08T15:55:41.060Z,98749.19
2023-04-08T15:58:09.804Z,98747.91
2023-04-08T16:00:38.028Z,98745.38
2023-04-08T16:03:11.977Z,98752.94
2023-04-08T16:05:41.752Z,98747.97
2023-04-08T16:08:10.401Z,98749.50
2023-04-08T16:10:38.572Z,98741.69
2023-04-08T16:13:07.729Z,98749.72
2023-04-08T16:15:36.363Z,98757.69
2023-04-08T16:18:06.476Z,98749.28
2023-04-08T16:20:38.440Z,98758.72
2023-04-08T16:23:06.983Z,98749.47
2023-04-08T16:25:35.105Z,98756.97
2023-04-08T16:28:03.905Z,98756.44
2023-04-08T16:30:32.284Z,98755.22
2023-04-08T16:33:01.052Z,98761.31
2023-04-08T16:35:29.333Z,98758.50
2023-04-08T16:37:59.707Z,98764.53
2023-04-08T16:40:27.990Z,98759.41
2023-04-08T16:42:56.945Z,98758.44
2023-04-08T16:45:25.419Z,98754.56
2023-04-08T16:47:54.225Z,98763.56
2023-04-08T16:50:22.591Z,98761.38
2023-04-08T16:52:51.190Z,98759.00
2023-04-08T16:55:21.040Z,98760.94
2023-04-08T16:57:49.773Z,98769.44
2023-04-08T17:00:21.040Z,98773.09
2023-04-08T17:02:50.353Z,98783.34
2023-04-08T17:05:18.958Z,98780.56
2023-04-08T17:07:47.587Z,98776.91
2023-04-08T17:10:15.988Z,98783.03
2023-04-08T17:12:46.186Z,98792.88
2023-04-08T17:15:14.416Z,98781.84
2023-04-08T17:17:43.126Z,98789.47
2023-04-08T17:20:12.424Z,98787.34
2023-04-08T17:22:41.126Z,98792.66
2023-04-08T17:25:10.045Z,98797.81
2023-04-08T17:27:38.575Z,98800.50
2023-04-08T17:30:11.318Z,98797.19
2023-04-08T17:32:40.289Z,98793.47
2023-04-08T17:35:09.361Z,98797.72
2023-04-08T17:37:38.017Z,98795.97
2023-04-08T17:40:07.679Z,98802.44
2023-04-08T17:42:36.436Z,98804.97
2023-04-08T17:45:05.681Z,98807.06
2023-04-08T17:47:35.723Z,98813.69
2023-04-08T17:50:03.970Z,98812.59
2023-04-08T17:52:32.536Z,98818.75
2023-04-08T17:55:00.952Z,98816.00
2023-04-08T17:57:29.704Z,98816.53
2023-04-08T17:59:57.980Z,98819.75
2023-04-08T18:02:27.682Z,98826.06
2023-04-08T18:04:58.651Z,98820.84
2023-04-08T18:07:27.509Z,98822.34
2023-04-08T18:09:56.627Z,98825.94
2023-04-08T18:12:26.316Z,98824.44
2023-04-08T18:14:54.641Z,98835.59
2023-04-08T18:17:23.209Z,98827.13
2023-04-08T18:19:51.451Z,98841.22
2023-04-08T18:22:22.609Z,98837.72
2023-04-08T18:24:51.072Z,98837.06
2023-04-08T18:27:19.660Z,98844.38
2023-04-08T18:29:48.152Z,98842.09
2023-04-08T18:32:16.804Z,98839.53
2023-04-08T18:34:45.035Z,98844.31
2023-04-08T18:37:17.036Z,98851.22
2023-04-08T18:39:46.433Z,98847.03
2023-04-08T18:42:15.071Z,98854.66
2023-04-08T18:44:43.358Z,98855.69
2023-04-08T18:47:12.146Z,98857.81
2023-04-08T18:49:40.320Z,98857.09
2023-04-08T18:52:09.437Z,98858.41
2023-04-08T18:54:37.681Z,98847.31
2023-04-08T18:57:08.043Z,98859.97
2023-04-08T18:59:37.218Z,98860.31
2023-04-08T19:02:05.943Z,98860.84
2023-04-08T19:04:34.318Z,98856.44
2023-04-08T19:07:03.104Z,98853.81
2023-04-08T19:09:31.993Z,98863.75
2023-04-08T19:12:00.686Z,98867.50
2023-04-08T19:14:30.390Z,98860.44
2023-04-08T19:16:58.851Z,98856.28
2023-04-08T19:19:27.075Z,98861.78
2023-04-08T19:21:55.571Z,98866.13
2023-04-08T19:24:23.852Z,98857.50
2023-04-08T19:26:53.202Z,98863.25
2023-04-08T19:29:23.424Z,98864.38
2023-04-08T19:31:53.440Z,98864.13
2023-04-08T19:34:21.583Z,98866.56
2023-04-08T19:36:50.050Z,98862.22
2023-04-08T19:39:18.591Z,98864.69
2023-04-08T19:41:47.168Z,98850.81
2023-04-08T19:44:15.730Z,98862.34
2023-04-08T19:46:44.542Z,98862.88
2023-04-08T19:49:14.143Z,98854.19
2023-04-08T19:51:42.641Z,98857.94
2023-04-08T19:54:10.827Z,98851.97
2023-04-08T19:56:39.608Z,98857.13
2023-04-08T19:59:07.887Z,98856.38
2023-04-08T20:01:36.527Z,98855.72
2023-04-08T20:04:05.013Z,98854.69
2023-04-08T20:06:35.431Z,98851.81
2023-04-08T20:09:05.759Z,98859.84
2023-04-08T20:11:34.572Z,98847.13
2023-04-08T20:14:03.516Z,98844.28
2023-04-08T20:16:32.134Z,98848.09
2023-04-08T20:19:00.455Z,98846.84
2023-04-08T20:21:28.987Z,98844.16
2023-04-08T20:23:58.615Z,98851.16
2023-04-08T20:26:27.199Z,98850.03
2023-04-08T20:28:58.491Z,98850.72
2023-04-08T20:31:28.114Z,98841.06
2023-04-08T20:33:56.513Z,98844.16
2023-04-08T20:36:25.946Z,98848.28
2023-04-08T20:38:55.034Z,98844.28
2023-04-08T20:41:26.057Z,98847.06
2023-04-08T20:43:55.177Z,98845.63
2023-04-08T20:46:24.610Z,98851.19
2023-04-08T20:48:53.179Z,98852.66
2023-04-08T20:51:22.170Z,98863.44
2023-04-08T20:53:50.779Z,98858.63
2023-04-08T20:56:19.270Z,98864.72
2023-04-08T20:58:48.796Z,98858.50
2023-04-08T21:01:17.310Z,98853.75
2023-04-08T21:03:45.731Z,98851.00
2023-04-08T21:06:18.153Z,98862.75
2023-04-08T21:08:46.857Z,98869.97
2023-04-08T21:11:15.750Z,98859.88
2023-04-08T21:13:45.949Z,98865.63
2023-04-08T21:16:17.428Z,98874.66
2023-04-08T21:18:45.675Z,98874.81
2023-04-08T21:21:14.260Z,98872.63
2023-04-08T21:23:42.449Z,98868.84
2023-04-08T21:26:14.671Z,98873.25
2023-04-08T21:28:44.078Z,98876.38
2023-04-08T21:31:13.244Z,98869.94
2023-04-08T21:33:42.759Z,98872.34
2023-04-08T21:36:11.334Z,98877.88
2023-04-08T21:38:39.592Z,98884.06
2023-04-08T21:41:08.112Z,98882.47
2023-04-08T21:43:36.365Z,98882.28
2023-04-08T21:46:05.172Z,98882.69
2023-04-08T21:48:33.403Z,98886.38
2023-04-08T21:51:03.371Z,98876.78
2023-04-08T21:53:31.615Z,98879.47
2023-04-08T21:56:00.156Z,98874.50
2023-04-08T21:58:29.085Z,98874.97
2023-04-08T22:00:57.687Z,98865.28
2023-04-08T22:03:26.670Z,98865.69
2023-04-08T22:05:55.377Z,98864.34
2023-04-08T22:08:25.059Z,98862.25
2023-04-08T22:10:54.189Z,98875.22
2023-04-08T22:13:22.393Z,98874.84
2023-04-08T22:15:51.056Z,98880.06
2023-04-08T22:18:19.271Z,98877.38
2023-04-08T22:20:48.026Z,98863.84
2023-04-08T22:23:16.238Z,98868.28
2023-04-08T22:25:49.498Z,98871.44
2023-04-08T22:28:17.810Z,98864.47
2023-04-08T22:30:46.418Z,98868.28
2023-04-08T22:33:14.641Z,98863.03
2023-04-08T22:35:43.520Z,98855.56
2023-04-08T22:38:11.911Z,98853.28
2023-04-08T22:40:40.446Z,98857.19
2023-04-08T22:43:10.098Z,98850.63
2023-04-08T22:45:38.869Z,98845.13
2023-04-08T22:48:07.568Z,98842.13
2023-04-08T22:50:36.240Z,98852.59
2023-04-08T22:53:04.704Z,98860.66
2023-04-08T22:55:33.447Z,98854.56
2023-04-08T22:58:01.745Z,98855.97
2023-04-08T23:00:31.931Z,98849.72
2023-04-08T23:03:04.631Z,98844.53
2023-04-08T23:05:33.300Z,98849.22
2023-04-08T23:08:01.588Z,98849.31
2023-04-08T23:10:30.096Z,98855.34
2023-04-08T23:12:58.416Z,98853.16
2023-04-08T23:15:27.015Z,98863.56
2023-04-08T23:17:56.734Z,98862.16
2023-04-08T23:20:25.146Z,98867.56
2023-04-08T23:22:53.514Z,98878.84
2023-04-08T23:25:21.947Z,98876.44
2023-04-08T23:27:50.197Z,98867.72
2023-04-08T23:30:18.767Z,98858.84
2023-04-08T23:32:47.120Z,98854.91
2023-04-08T23:35:17.377Z,98844.63
2023-04-08T23:37:45.767Z,98840.75
2023-04-08T23:40:14.281Z,98833.09
2023-04-08T23:42:42.542Z,98834.25
2023-04-08T23:45:11.849Z,98829.63
2023-04-08T23:47:40.155Z,98827.91
2023-04-08T23:50:10.136Z,98836.13
2023-04-08T23:52:39.657Z,98832.25
2023-04-08T23:55:08.612Z,98830.88
2023-04-08T23:57:37.033Z,98834.63
